sensor_id;sensor_type;location;lat;lon;timestamp;temperature;humidity
32877;DHT22;19226;51.600;8.034;2023-08-06T00:00:38;16.50;99.90
32877;DHT22;19226;51.600;8.034;2023-08-06T00:03:22;16.50;99.90
32877;DHT22;19226;51.600;8.034;2023-08-06T00:06:07;16.50;99.90
32877;DHT22;19226;51.600;8.034;2023-08-06T00:08:51;16.50;99.90
32877;DHT22;19226;51.600;8.034;2023-08-06T00:11:36;16.50;99.90
32877;DHT22;19226;51.600;8.034;2023-08-06T00:14:20;16.50;99.90
32877;DHT22;19226;51.600;8.034;2023-08-06T00:17:05;16.50;99.90
32877;DHT22;19226;51.600;8.034;2023-08-06T00:19:49;16.50;99.90
32877;DHT22;19226;51.600;8.034;2023-08-06T00:22:35;16.50;99.90
32877;DHT22;19226;51.600;8.034;2023-08-06T00:25:20;16.50;99.90
32877;DHT22;19226;51.600;8.034;2023-08-06T00:28:04;16.50;99.90
32877;DHT22;19226;51.600;8.034;2023-08-06T00:30:53;16.50;99.90
32877;DHT22;19226;51.600;8.034;2023-08-06T00:33:38;16.50;99.90
32877;DHT22;19226;51.600;8.034;2023-08-06T00:36:22;16.40;99.90
32877;DHT22;19226;51.600;8.034;2023-08-06T00:39:07;16.40;99.90
32877;DHT22;19226;51.600;8.034;2023-08-06T00:41:51;16.40;99.90
32877;DHT22;19226;51.600;8.034;2023-08-06T00:44:37;16.40;99.90
32877;DHT22;19226;51.600;8.034;2023-08-06T00:47:21;16.40;99.90
32877;DHT22;19226;51.600;8.034;2023-08-06T00:50:08;16.40;99.90
32877;DHT22;19226;51.600;8.034;2023-08-06T00:52:53;16.40;99.90
32877;DHT22;19226;51.600;8.034;2023-08-06T00:55:39;16.40;99.90
32877;DHT22;19226;51.600;8.034;2023-08-06T00:58:24;16.40;99.90
32877;DHT22;19226;51.600;8.034;2023-08-06T01:01:08;16.40;99.90
32877;DHT22;19226;51.600;8.034;2023-08-06T01:03:54;16.40;99.90
32877;DHT22;19226;51.600;8.034;2023-08-06T01:06:48;16.50;99.90
32877;DHT22;19226;51.600;8.034;2023-08-06T01:10:10;16.50;99.90
32877;DHT22;19226;51.600;8.034;2023-08-06T01:16:24;16.50;99.90
32877;DHT22;19226;51.600;8.034;2023-08-06T01:19:18;16.40;99.90
32877;DHT22;19226;51.600;8.034;2023-08-06T01:22:03;16.40;99.90
32877;DHT22;19226;51.600;8.034;2023-08-06T01:24:51;16.40;99.90
32877;DHT22;19226;51.600;8.034;2023-08-06T01:27:46;16.40;99.90
32877;DHT22;19226;51.600;8.034;2023-08-06T01:30:33;16.40;99.90
32877;DHT22;19226;51.600;8.034;2023-08-06T01:33:24;16.40;99.90
32877;DHT22;19226;51.600;8.034;2023-08-06T01:36:09;16.30;99.90
32877;DHT22;19226;51.600;8.034;2023-08-06T01:38:54;16.30;99.90
32877;DHT22;19226;51.600;8.034;2023-08-06T01:41:39;16.30;99.90
32877;DHT22;19226;51.600;8.034;2023-08-06T01:44:23;16.30;99.90
32877;DHT22;19226;51.600;8.034;2023-08-06T01:47:07;16.30;99.90
32877;DHT22;19226;51.600;8.034;2023-08-06T01:49:52;16.30;99.90
32877;DHT22;19226;51.600;8.034;2023-08-06T01:52:37;16.30;99.90
32877;DHT22;19226;51.600;8.034;2023-08-06T01:55:21;16.30;99.90
32877;DHT22;19226;51.600;8.034;2023-08-06T01:58:07;16.30;99.90
32877;DHT22;19226;51.600;8.034;2023-08-06T02:00:52;16.30;99.90
32877;DHT22;19226;51.600;8.034;2023-08-06T02:03:37;16.30;99.90
32877;DHT22;19226;51.600;8.034;2023-08-06T02:06:21;16.30;99.90
32877;DHT22;19226;51.600;8.034;2023-08-06T02:09:05;16.30;99.90
32877;DHT22;19226;51.600;8.034;2023-08-06T02:11:50;16.30;99.90
32877;DHT22;19226;51.600;8.034;2023-08-06T02:14:35;16.20;99.90
32877;DHT22;19226;51.600;8.034;2023-08-06T02:17:19;16.20;99.90
32877;DHT22;19226;51.600;8.034;2023-08-06T02:20:04;16.10;99.90
32877;DHT22;19226;51.600;8.034;2023-08-06T02:22:49;16.10;99.90
32877;DHT22;19226;51.600;8.034;2023-08-06T02:25:34;16.10;99.90
32877;DHT22;19226;51.600;8.034;2023-08-06T02:28:19;16.10;99.90
32877;DHT22;19226;51.600;8.034;2023-08-06T02:31:03;16.00;99.90
32877;DHT22;19226;51.600;8.034;2023-08-06T02:33:48;16.00;99.90
32877;DHT22;19226;51.600;8.034;2023-08-06T02:36:32;16.00;99.90
32877;DHT22;19226;51.600;8.034;2023-08-06T02:39:17;16.00;99.90
32877;DHT22;19226;51.600;8.034;2023-08-06T02:42:03;16.00;99.90
32877;DHT22;19226;51.600;8.034;2023-08-06T02:44:49;16.00;99.90
32877;DHT22;19226;51.600;8.034;2023-08-06T02:47:34;16.00;99.90
32877;DHT22;19226;51.600;8.034;2023-08-06T02:50:19;16.00;99.90
32877;DHT22;19226;51.600;8.034;2023-08-06T02:53:03;16.00;99.90
32877;DHT22;19226;51.600;8.034;2023-08-06T02:55:48;15.90;99.90
32877;DHT22;19226;51.600;8.034;2023-08-06T02:58:36;15.90;99.90
32877;DHT22;19226;51.600;8.034;2023-08-06T03:01:32;15.90;99.90
32877;DHT22;19226;51.600;8.034;2023-08-06T03:04:24;15.80;99.90
32877;DHT22;19226;51.600;8.034;2023-08-06T03:07:09;15.80;99.90
32877;DHT22;19226;51.600;8.034;2023-08-06T03:10:03;15.80;99.90
32877;DHT22;19226;51.600;8.034;2023-08-06T03:12:48;15.70;99.90
32877;DHT22;19226;51.600;8.034;2023-08-06T03:15:33;15.70;99.90
32877;DHT22;19226;51.600;8.034;2023-08-06T03:18:19;15.70;99.90
32877;DHT22;19226;51.600;8.034;2023-08-06T03:21:04;15.60;99.90
32877;DHT22;19226;51.600;8.034;2023-08-06T03:23:49;15.60;99.90
32877;DHT22;19226;51.600;8.034;2023-08-06T03:26:36;15.60;99.90
32877;DHT22;19226;51.600;8.034;2023-08-06T03:29:20;15.60;99.90
32877;DHT22;19226;51.600;8.034;2023-08-06T03:32:08;15.60;99.90
32877;DHT22;19226;51.600;8.034;2023-08-06T03:34:53;15.60;99.90
32877;DHT22;19226;51.600;8.034;2023-08-06T03:37:40;15.60;99.90
32877;DHT22;19226;51.600;8.034;2023-08-06T03:40:25;15.60;99.90
32877;DHT22;19226;51.600;8.034;2023-08-06T03:43:09;15.60;99.90
32877;DHT22;19226;51.600;8.034;2023-08-06T03:45:54;15.60;99.90
32877;DHT22;19226;51.600;8.034;2023-08-06T03:48:39;15.60;99.90
32877;DHT22;19226;51.600;8.034;2023-08-06T03:51:24;15.60;99.90
32877;DHT22;19226;51.600;8.034;2023-08-06T03:54:12;15.60;99.90
32877;DHT22;19226;51.600;8.034;2023-08-06T03:56:56;15.60;99.90
32877;DHT22;19226;51.600;8.034;2023-08-06T03:59:42;15.60;99.90
32877;DHT22;19226;51.600;8.034;2023-08-06T04:02:26;15.60;99.90
32877;DHT22;19226;51.600;8.034;2023-08-06T04:05:12;15.70;99.90
32877;DHT22;19226;51.600;8.034;2023-08-06T04:07:56;15.60;99.90
32877;DHT22;19226;51.600;8.034;2023-08-06T04:10:41;15.60;99.90
32877;DHT22;19226;51.600;8.034;2023-08-06T04:13:26;15.60;99.90
32877;DHT22;19226;51.600;8.034;2023-08-06T04:16:10;15.70;99.90
32877;DHT22;19226;51.600;8.034;2023-08-06T04:18:55;15.70;99.90
32877;DHT22;19226;51.600;8.034;2023-08-06T04:21:40;15.70;99.90
32877;DHT22;19226;51.600;8.034;2023-08-06T04:24:24;15.70;99.90
32877;DHT22;19226;51.600;8.034;2023-08-06T04:27:09;15.70;99.90
32877;DHT22;19226;51.600;8.034;2023-08-06T04:29:54;15.70;99.90
32877;DHT22;19226;51.600;8.034;2023-08-06T04:32:40;15.70;99.90
32877;DHT22;19226;51.600;8.034;2023-08-06T04:35:25;15.70;99.90
32877;DHT22;19226;51.600;8.034;2023-08-06T04:38:09;15.70;99.90
32877;DHT22;19226;51.600;8.034;2023-08-06T04:40:54;15.70;99.90
32877;DHT22;19226;51.600;8.034;2023-08-06T04:43:39;15.70;99.90
32877;DHT22;19226;51.600;8.034;2023-08-06T04:46:23;15.70;99.90
32877;DHT22;19226;51.600;8.034;2023-08-06T04:49:08;15.70;99.90
32877;DHT22;19226;51.600;8.034;2023-08-06T04:51:52;15.70;99.90
32877;DHT22;19226;51.600;8.034;2023-08-06T04:54:37;15.70;99.90
32877;DHT22;19226;51.600;8.034;2023-08-06T04:57:22;15.80;99.90
32877;DHT22;19226;51.600;8.034;2023-08-06T05:00:07;15.70;99.90
32877;DHT22;19226;51.600;8.034;2023-08-06T05:02:52;15.70;99.90
32877;DHT22;19226;51.600;8.034;2023-08-06T05:05:36;15.80;99.90
32877;DHT22;19226;51.600;8.034;2023-08-06T05:08:20;15.80;99.90
32877;DHT22;19226;51.600;8.034;2023-08-06T05:11:05;15.90;99.90
32877;DHT22;19226;51.600;8.034;2023-08-06T05:13:49;15.90;99.90
32877;DHT22;19226;51.600;8.034;2023-08-06T05:16:34;15.90;99.90
32877;DHT22;19226;51.600;8.034;2023-08-06T05:19:18;16.00;99.90
32877;DHT22;19226;51.600;8.034;2023-08-06T05:22:03;16.00;99.90
32877;DHT22;19226;51.600;8.034;2023-08-06T05:24:48;16.10;99.90
32877;DHT22;19226;51.600;8.034;2023-08-06T05:27:32;16.20;99.90
32877;DHT22;19226;51.600;8.034;2023-08-06T05:30:17;16.20;99.90
32877;DHT22;19226;51.600;8.034;2023-08-06T05:33:01;16.30;99.90
32877;DHT22;19226;51.600;8.034;2023-08-06T05:35:46;16.40;99.90
32877;DHT22;19226;51.600;8.034;2023-08-06T05:38:31;16.50;99.90
32877;DHT22;19226;51.600;8.034;2023-08-06T05:41:15;16.60;99.90
32877;DHT22;19226;51.600;8.034;2023-08-06T05:44:00;16.70;99.90
32877;DHT22;19226;51.600;8.034;2023-08-06T05:46:44;16.80;99.90
32877;DHT22;19226;51.600;8.034;2023-08-06T05:49:29;16.90;99.90
32877;DHT22;19226;51.600;8.034;2023-08-06T05:52:13;16.90;99.90
32877;DHT22;19226;51.600;8.034;2023-08-06T05:54:58;17.00;99.90
32877;DHT22;19226;51.600;8.034;2023-08-06T05:57:42;17.10;99.90
32877;DHT22;19226;51.600;8.034;2023-08-06T06:00:27;17.10;99.90
32877;DHT22;19226;51.600;8.034;2023-08-06T06:03:11;17.20;99.90
32877;DHT22;19226;51.600;8.034;2023-08-06T06:05:56;17.30;99.90
32877;DHT22;19226;51.600;8.034;2023-08-06T06:08:40;17.40;99.90
32877;DHT22;19226;51.600;8.034;2023-08-06T06:11:25;17.40;99.90
32877;DHT22;19226;51.600;8.034;2023-08-06T06:14:09;17.50;99.90
32877;DHT22;19226;51.600;8.034;2023-08-06T06:16:54;17.60;99.90
32877;DHT22;19226;51.600;8.034;2023-08-06T06:19:38;17.60;99.90
32877;DHT22;19226;51.600;8.034;2023-08-06T06:22:23;17.70;99.90
32877;DHT22;19226;51.600;8.034;2023-08-06T06:25:08;17.70;99.90
32877;DHT22;19226;51.600;8.034;2023-08-06T06:27:52;17.80;99.90
32877;DHT22;19226;51.600;8.034;2023-08-06T06:30:37;18.00;99.90
32877;DHT22;19226;51.600;8.034;2023-08-06T06:33:22;18.00;99.90
32877;DHT22;19226;51.600;8.034;2023-08-06T06:36:06;18.10;99.90
32877;DHT22;19226;51.600;8.034;2023-08-06T06:38:51;18.10;99.90
32877;DHT22;19226;51.600;8.034;2023-08-06T06:41:35;18.20;99.90
32877;DHT22;19226;51.600;8.034;2023-08-06T06:44:28;18.20;99.90
32877;DHT22;19226;51.600;8.034;2023-08-06T06:47:13;18.30;99.90
32877;DHT22;19226;51.600;8.034;2023-08-06T06:49:57;18.30;99.90
32877;DHT22;19226;51.600;8.034;2023-08-06T06:52:42;18.40;99.90
32877;DHT22;19226;51.600;8.034;2023-08-06T06:55:27;18.40;99.90
32877;DHT22;19226;51.600;8.034;2023-08-06T06:58:12;18.50;99.90
32877;DHT22;19226;51.600;8.034;2023-08-06T07:00:56;18.40;99.90
32877;DHT22;19226;51.600;8.034;2023-08-06T07:03:40;18.40;99.90
32877;DHT22;19226;51.600;8.034;2023-08-06T07:06:25;18.40;99.90
32877;DHT22;19226;51.600;8.034;2023-08-06T07:09:09;18.50;99.90
32877;DHT22;19226;51.600;8.034;2023-08-06T07:11:54;18.50;99.90
32877;DHT22;19226;51.600;8.034;2023-08-06T07:14:39;18.50;99.90
32877;DHT22;19226;51.600;8.034;2023-08-06T07:17:23;18.60;99.90
32877;DHT22;19226;51.600;8.034;2023-08-06T07:20:08;18.70;99.90
32877;DHT22;19226;51.600;8.034;2023-08-06T07:22:53;18.80;99.90
32877;DHT22;19226;51.600;8.034;2023-08-06T07:25:37;18.90;99.90
32877;DHT22;19226;51.600;8.034;2023-08-06T07:28:22;19.10;99.90
32877;DHT22;19226;51.600;8.034;2023-08-06T07:31:07;19.10;99.90
32877;DHT22;19226;51.600;8.034;2023-08-06T07:33:51;19.30;99.90
32877;DHT22;19226;51.600;8.034;2023-08-06T07:36:37;19.30;99.90
32877;DHT22;19226;51.600;8.034;2023-08-06T07:39:22;19.40;99.90
32877;DHT22;19226;51.600;8.034;2023-08-06T07:42:07;19.40;99.90
32877;DHT22;19226;51.600;8.034;2023-08-06T07:44:56;19.50;99.90
32877;DHT22;19226;51.600;8.034;2023-08-06T07:47:41;19.60;99.90
32877;DHT22;19226;51.600;8.034;2023-08-06T07:50:27;19.80;99.90
32877;DHT22;19226;51.600;8.034;2023-08-06T07:53:11;19.80;99.90
32877;DHT22;19226;51.600;8.034;2023-08-06T07:55:56;19.90;99.90
32877;DHT22;19226;51.600;8.034;2023-08-06T07:58:41;20.10;99.90
32877;DHT22;19226;51.600;8.034;2023-08-06T08:01:25;20.20;99.90
32877;DHT22;19226;51.600;8.034;2023-08-06T08:04:10;20.40;99.90
32877;DHT22;19226;51.600;8.034;2023-08-06T08:06:54;20.40;99.90
32877;DHT22;19226;51.600;8.034;2023-08-06T08:09:39;20.50;99.90
32877;DHT22;19226;51.600;8.034;2023-08-06T08:12:23;20.60;99.90
32877;DHT22;19226;51.600;8.034;2023-08-06T08:15:08;20.70;99.90
32877;DHT22;19226;51.600;8.034;2023-08-06T08:17:53;20.80;99.90
32877;DHT22;19226;51.600;8.034;2023-08-06T08:20:37;21.00;99.90
32877;DHT22;19226;51.600;8.034;2023-08-06T08:23:22;21.20;99.90
32877;DHT22;19226;51.600;8.034;2023-08-06T08:26:06;21.30;99.90
32877;DHT22;19226;51.600;8.034;2023-08-06T08:28:51;21.40;99.90
32877;DHT22;19226;51.600;8.034;2023-08-06T08:31:35;21.40;99.90
32877;DHT22;19226;51.600;8.034;2023-08-06T08:34:23;21.40;99.90
32877;DHT22;19226;51.600;8.034;2023-08-06T08:37:08;21.50;99.90
32877;DHT22;19226;51.600;8.034;2023-08-06T08:39:53;21.70;99.90
32877;DHT22;19226;51.600;8.034;2023-08-06T08:42:38;21.90;99.90
32877;DHT22;19226;51.600;8.034;2023-08-06T08:45:26;22.00;99.90
32877;DHT22;19226;51.600;8.034;2023-08-06T08:48:12;22.10;99.90
32877;DHT22;19226;51.600;8.034;2023-08-06T08:51:01;22.20;99.90
32877;DHT22;19226;51.600;8.034;2023-08-06T08:53:47;22.30;99.90
32877;DHT22;19226;51.600;8.034;2023-08-06T08:56:34;22.30;99.90
32877;DHT22;19226;51.600;8.034;2023-08-06T08:59:18;22.30;99.90
32877;DHT22;19226;51.600;8.034;2023-08-06T09:02:03;22.40;99.90
32877;DHT22;19226;51.600;8.034;2023-08-06T09:04:48;22.40;99.90
32877;DHT22;19226;51.600;8.034;2023-08-06T09:07:36;22.50;99.90
32877;DHT22;19226;51.600;8.034;2023-08-06T09:10:23;22.50;99.90
32877;DHT22;19226;51.600;8.034;2023-08-06T09:13:09;22.50;99.90
32877;DHT22;19226;51.600;8.034;2023-08-06T09:15:56;22.40;99.90
32877;DHT22;19226;51.600;8.034;2023-08-06T09:18:41;22.30;99.90
32877;DHT22;19226;51.600;8.034;2023-08-06T09:21:28;22.30;99.90
32877;DHT22;19226;51.600;8.034;2023-08-06T09:24:13;22.10;99.90
32877;DHT22;19226;51.600;8.034;2023-08-06T09:27:02;21.90;99.90
32877;DHT22;19226;51.600;8.034;2023-08-06T09:29:48;22.00;99.90
32877;DHT22;19226;51.600;8.034;2023-08-06T09:32:49;21.90;99.90
32877;DHT22;19226;51.600;8.034;2023-08-06T09:35:36;21.90;99.90
32877;DHT22;19226;51.600;8.034;2023-08-06T09:38:20;21.90;99.90
32877;DHT22;19226;51.600;8.034;2023-08-06T09:41:05;22.00;99.90
32877;DHT22;19226;51.600;8.034;2023-08-06T09:43:49;21.90;99.90
32877;DHT22;19226;51.600;8.034;2023-08-06T09:46:34;22.00;99.90
32877;DHT22;19226;51.600;8.034;2023-08-06T09:49:20;22.10;99.90
32877;DHT22;19226;51.600;8.034;2023-08-06T09:52:05;22.10;99.90
32877;DHT22;19226;51.600;8.034;2023-08-06T09:54:51;22.10;99.90
32877;DHT22;19226;51.600;8.034;2023-08-06T09:57:36;22.20;99.90
32877;DHT22;19226;51.600;8.034;2023-08-06T10:00:22;22.40;99.90
32877;DHT22;19226;51.600;8.034;2023-08-06T10:03:08;22.50;99.90
32877;DHT22;19226;51.600;8.034;2023-08-06T10:05:55;22.50;99.90
32877;DHT22;19226;51.600;8.034;2023-08-06T10:08:41;22.40;99.90
32877;DHT22;19226;51.600;8.034;2023-08-06T10:11:26;22.50;99.90
32877;DHT22;19226;51.600;8.034;2023-08-06T10:14:15;22.50;99.90
32877;DHT22;19226;51.600;8.034;2023-08-06T10:17:02;22.50;99.90
32877;DHT22;19226;51.600;8.034;2023-08-06T10:19:48;22.60;99.90
32877;DHT22;19226;51.600;8.034;2023-08-06T10:22:33;22.70;99.90
32877;DHT22;19226;51.600;8.034;2023-08-06T10:25:18;22.70;99.90
32877;DHT22;19226;51.600;8.034;2023-08-06T10:28:10;22.60;99.90
32877;DHT22;19226;51.600;8.034;2023-08-06T10:30:55;22.50;99.90
32877;DHT22;19226;51.600;8.034;2023-08-06T10:33:47;22.60;99.90
32877;DHT22;19226;51.600;8.034;2023-08-06T10:36:32;22.80;99.90
32877;DHT22;19226;51.600;8.034;2023-08-06T10:39:17;22.80;99.90
32877;DHT22;19226;51.600;8.034;2023-08-06T10:42:01;22.80;99.90
32877;DHT22;19226;51.600;8.034;2023-08-06T10:45:12;22.80;99.90
32877;DHT22;19226;51.600;8.034;2023-08-06T10:48:00;22.90;99.90
32877;DHT22;19226;51.600;8.034;2023-08-06T10:50:44;22.80;99.90
32877;DHT22;19226;51.600;8.034;2023-08-06T10:53:29;22.80;99.90
32877;DHT22;19226;51.600;8.034;2023-08-06T10:56:19;22.90;99.90
32877;DHT22;19226;51.600;8.034;2023-08-06T10:59:04;23.00;99.90
32877;DHT22;19226;51.600;8.034;2023-08-06T11:01:48;23.00;99.90
32877;DHT22;19226;51.600;8.034;2023-08-06T11:04:34;23.00;99.90
32877;DHT22;19226;51.600;8.034;2023-08-06T11:07:19;23.00;99.90
32877;DHT22;19226;51.600;8.034;2023-08-06T11:10:06;23.10;99.90
32877;DHT22;19226;51.600;8.034;2023-08-06T11:12:52;23.00;99.90
32877;DHT22;19226;51.600;8.034;2023-08-06T11:15:37;23.10;99.90
32877;DHT22;19226;51.600;8.034;2023-08-06T11:18:21;23.20;99.90
32877;DHT22;19226;51.600;8.034;2023-08-06T11:21:06;23.20;99.90
32877;DHT22;19226;51.600;8.034;2023-08-06T11:23:52;23.40;99.90
32877;DHT22;19226;51.600;8.034;2023-08-06T11:26:37;23.40;99.90
32877;DHT22;19226;51.600;8.034;2023-08-06T11:29:24;23.50;99.90
32877;DHT22;19226;51.600;8.034;2023-08-06T11:32:09;23.60;99.90
32877;DHT22;19226;51.600;8.034;2023-08-06T11:34:54;23.60;99.90
32877;DHT22;19226;51.600;8.034;2023-08-06T11:37:48;23.60;99.90
32877;DHT22;19226;51.600;8.034;2023-08-06T11:40:32;23.60;99.90
32877;DHT22;19226;51.600;8.034;2023-08-06T11:43:19;23.50;99.90
32877;DHT22;19226;51.600;8.034;2023-08-06T11:46:05;23.50;99.90
32877;DHT22;19226;51.600;8.034;2023-08-06T11:48:57;23.60;99.90
32877;DHT22;19226;51.600;8.034;2023-08-06T11:51:45;23.50;99.90
32877;DHT22;19226;51.600;8.034;2023-08-06T11:54:32;23.50;99.90
32877;DHT22;19226;51.600;8.034;2023-08-06T11:57:21;23.60;99.90
32877;DHT22;19226;51.600;8.034;2023-08-06T12:00:08;23.60;99.90
32877;DHT22;19226;51.600;8.034;2023-08-06T12:03:04;23.60;99.90
32877;DHT22;19226;51.600;8.034;2023-08-06T12:05:48;23.60;99.90
32877;DHT22;19226;51.600;8.034;2023-08-06T12:08:38;23.40;99.90
32877;DHT22;19226;51.600;8.034;2023-08-06T12:11:26;23.40;99.90
32877;DHT22;19226;51.600;8.034;2023-08-06T12:14:10;23.30;99.90
32877;DHT22;19226;51.600;8.034;2023-08-06T12:16:55;23.30;99.90
32877;DHT22;19226;51.600;8.034;2023-08-06T12:19:39;23.20;99.90
32877;DHT22;19226;51.600;8.034;2023-08-06T12:22:24;23.20;99.90
32877;DHT22;19226;51.600;8.034;2023-08-06T12:25:11;23.00;99.90
32877;DHT22;19226;51.600;8.034;2023-08-06T12:27:58;22.90;99.90
32877;DHT22;19226;51.600;8.034;2023-08-06T12:30:43;22.70;99.90
32877;DHT22;19226;51.600;8.034;2023-08-06T12:33:29;22.60;99.90
32877;DHT22;19226;51.600;8.034;2023-08-06T12:36:13;22.60;99.90
32877;DHT22;19226;51.600;8.034;2023-08-06T12:38:58;22.60;99.90
32877;DHT22;19226;51.600;8.034;2023-08-06T12:41:42;22.60;99.90
32877;DHT22;19226;51.600;8.034;2023-08-06T12:44:30;22.60;99.90
32877;DHT22;19226;51.600;8.034;2023-08-06T12:47:16;22.60;99.90
32877;DHT22;19226;51.600;8.034;2023-08-06T12:50:01;22.40;99.90
32877;DHT22;19226;51.600;8.034;2023-08-06T12:52:45;22.10;99.90
32877;DHT22;19226;51.600;8.034;2023-08-06T12:55:30;21.90;99.90
32877;DHT22;19226;51.600;8.034;2023-08-06T12:58:15;21.70;99.90
32877;DHT22;19226;51.600;8.034;2023-08-06T13:01:01;21.60;99.90
32877;DHT22;19226;51.600;8.034;2023-08-06T13:03:45;21.70;99.90
32877;DHT22;19226;51.600;8.034;2023-08-06T13:06:30;21.70;99.90
32877;DHT22;19226;51.600;8.034;2023-08-06T13:09:15;21.70;99.90
32877;DHT22;19226;51.600;8.034;2023-08-06T13:12:00;21.50;99.90
32877;DHT22;19226;51.600;8.034;2023-08-06T13:14:44;21.40;99.90
32877;DHT22;19226;51.600;8.034;2023-08-06T13:17:28;21.30;99.90
32877;DHT22;19226;51.600;8.034;2023-08-06T13:20:13;21.30;99.90
32877;DHT22;19226;51.600;8.034;2023-08-06T13:22:58;21.20;99.90
32877;DHT22;19226;51.600;8.034;2023-08-06T13:25:45;21.30;99.90
32877;DHT22;19226;51.600;8.034;2023-08-06T13:28:29;21.30;99.90
32877;DHT22;19226;51.600;8.034;2023-08-06T13:31:14;21.20;99.90
32877;DHT22;19226;51.600;8.034;2023-08-06T13:33:59;21.10;99.90
32877;DHT22;19226;51.600;8.034;2023-08-06T13:36:43;21.10;99.90
32877;DHT22;19226;51.600;8.034;2023-08-06T13:39:28;21.10;99.90
32877;DHT22;19226;51.600;8.034;2023-08-06T13:42:12;21.10;99.90
32877;DHT22;19226;51.600;8.034;2023-08-06T13:44:57;20.80;99.90
32877;DHT22;19226;51.600;8.034;2023-08-06T13:47:47;20.70;99.90
32877;DHT22;19226;51.600;8.034;2023-08-06T13:50:32;20.60;99.90
32877;DHT22;19226;51.600;8.034;2023-08-06T13:53:16;20.60;99.90
32877;DHT22;19226;51.600;8.034;2023-08-06T13:56:01;20.50;99.90
32877;DHT22;19226;51.600;8.034;2023-08-06T13:58:46;20.40;99.90
32877;DHT22;19226;51.600;8.034;2023-08-06T14:01:31;20.40;99.90
32877;DHT22;19226;51.600;8.034;2023-08-06T14:04:15;20.20;99.90
32877;DHT22;19226;51.600;8.034;2023-08-06T14:07:00;20.00;99.90
32877;DHT22;19226;51.600;8.034;2023-08-06T14:09:44;19.90;99.90
32877;DHT22;19226;51.600;8.034;2023-08-06T14:12:29;19.70;99.90
32877;DHT22;19226;51.600;8.034;2023-08-06T14:15:14;19.70;99.90
32877;DHT22;19226;51.600;8.034;2023-08-06T14:17:58;19.50;99.90
32877;DHT22;19226;51.600;8.034;2023-08-06T14:20:44;19.30;99.90
32877;DHT22;19226;51.600;8.034;2023-08-06T14:23:28;19.20;99.90
32877;DHT22;19226;51.600;8.034;2023-08-06T14:26:13;18.90;99.90
32877;DHT22;19226;51.600;8.034;2023-08-06T14:29:00;18.70;99.90
32877;DHT22;19226;51.600;8.034;2023-08-06T14:31:45;18.80;99.90
32877;DHT22;19226;51.600;8.034;2023-08-06T14:34:30;18.80;99.90
32877;DHT22;19226;51.600;8.034;2023-08-06T14:37:15;18.60;99.90
32877;DHT22;19226;51.600;8.034;2023-08-06T14:39:59;18.60;99.90
32877;DHT22;19226;51.600;8.034;2023-08-06T14:42:43;18.40;99.90
32877;DHT22;19226;51.600;8.034;2023-08-06T14:45:28;18.40;99.90
32877;DHT22;19226;51.600;8.034;2023-08-06T14:48:12;18.20;99.90
32877;DHT22;19226;51.600;8.034;2023-08-06T14:50:57;18.10;99.90
32877;DHT22;19226;51.600;8.034;2023-08-06T14:53:42;18.10;99.90
32877;DHT22;19226;51.600;8.034;2023-08-06T14:56:27;18.00;99.90
32877;DHT22;19226;51.600;8.034;2023-08-06T14:59:11;17.80;99.90
32877;DHT22;19226;51.600;8.034;2023-08-06T15:01:56;17.70;99.90
32877;DHT22;19226;51.600;8.034;2023-08-06T15:04:40;17.60;99.90
32877;DHT22;19226;51.600;8.034;2023-08-06T15:07:24;17.60;99.90
32877;DHT22;19226;51.600;8.034;2023-08-06T15:10:09;17.50;99.90
32877;DHT22;19226;51.600;8.034;2023-08-06T15:12:54;17.40;99.90
32877;DHT22;19226;51.600;8.034;2023-08-06T15:15:39;17.40;99.90
32877;DHT22;19226;51.600;8.034;2023-08-06T15:18:26;17.30;99.90
32877;DHT22;19226;51.600;8.034;2023-08-06T15:21:10;17.30;99.90
32877;DHT22;19226;51.600;8.034;2023-08-06T15:23:55;17.20;99.90
32877;DHT22;19226;51.600;8.034;2023-08-06T15:26:39;17.20;99.90
32877;DHT22;19226;51.600;8.034;2023-08-06T15:29:24;17.20;99.90
32877;DHT22;19226;51.600;8.034;2023-08-06T15:32:09;17.20;99.90
32877;DHT22;19226;51.600;8.034;2023-08-06T15:34:54;17.20;99.90
32877;DHT22;19226;51.600;8.034;2023-08-06T15:37:40;17.10;99.90
32877;DHT22;19226;51.600;8.034;2023-08-06T15:40:24;17.10;99.90
32877;DHT22;19226;51.600;8.034;2023-08-06T15:43:09;17.10;99.90
32877;DHT22;19226;51.600;8.034;2023-08-06T15:45:54;17.10;99.90
32877;DHT22;19226;51.600;8.034;2023-08-06T15:48:38;17.10;99.90
32877;DHT22;19226;51.600;8.034;2023-08-06T15:51:24;17.10;99.90
32877;DHT22;19226;51.600;8.034;2023-08-06T15:54:08;17.00;99.90
32877;DHT22;19226;51.600;8.034;2023-08-06T15:56:53;17.10;99.90
32877;DHT22;19226;51.600;8.034;2023-08-06T15:59:37;17.00;99.90
32877;DHT22;19226;51.600;8.034;2023-08-06T16:02:22;17.00;99.90
32877;DHT22;19226;51.600;8.034;2023-08-06T16:05:08;16.90;99.90
32877;DHT22;19226;51.600;8.034;2023-08-06T16:07:53;16.90;99.90
32877;DHT22;19226;51.600;8.034;2023-08-06T16:10:37;16.90;99.90
32877;DHT22;19226;51.600;8.034;2023-08-06T16:13:22;17.00;99.90
32877;DHT22;19226;51.600;8.034;2023-08-06T16:16:06;16.90;99.90
32877;DHT22;19226;51.600;8.034;2023-08-06T16:18:51;16.90;99.90
32877;DHT22;19226;51.600;8.034;2023-08-06T16:21:36;17.00;99.90
32877;DHT22;19226;51.600;8.034;2023-08-06T16:24:20;16.90;99.90
32877;DHT22;19226;51.600;8.034;2023-08-06T16:27:05;16.90;99.90
32877;DHT22;19226;51.600;8.034;2023-08-06T16:29:49;16.90;99.90
32877;DHT22;19226;51.600;8.034;2023-08-06T16:32:34;16.90;99.90
32877;DHT22;19226;51.600;8.034;2023-08-06T16:35:20;16.90;99.90
32877;DHT22;19226;51.600;8.034;2023-08-06T16:38:06;16.90;99.90
32877;DHT22;19226;51.600;8.034;2023-08-06T16:40:55;16.90;99.90
32877;DHT22;19226;51.600;8.034;2023-08-06T16:43:40;16.90;99.90
32877;DHT22;19226;51.600;8.034;2023-08-06T16:46:25;17.00;99.90
32877;DHT22;19226;51.600;8.034;2023-08-06T16:49:10;17.00;99.90
32877;DHT22;19226;51.600;8.034;2023-08-06T16:51:54;17.00;99.90
32877;DHT22;19226;51.600;8.034;2023-08-06T16:54:39;17.00;99.90
32877;DHT22;19226;51.600;8.034;2023-08-06T16:57:23;17.00;99.90
32877;DHT22;19226;51.600;8.034;2023-08-06T17:00:08;17.00;99.90
32877;DHT22;19226;51.600;8.034;2023-08-06T17:02:53;17.00;99.90
32877;DHT22;19226;51.600;8.034;2023-08-06T17:05:38;17.00;99.90
32877;DHT22;19226;51.600;8.034;2023-08-06T17:08:23;17.10;99.90
32877;DHT22;19226;51.600;8.034;2023-08-06T17:11:07;17.10;99.90
32877;DHT22;19226;51.600;8.034;2023-08-06T17:13:52;17.20;99.90
32877;DHT22;19226;51.600;8.034;2023-08-06T17:16:37;17.10;99.90
32877;DHT22;19226;51.600;8.034;2023-08-06T17:19:21;17.10;99.90
32877;DHT22;19226;51.600;8.034;2023-08-06T17:22:05;17.10;99.90
32877;DHT22;19226;51.600;8.034;2023-08-06T17:24:50;17.00;99.90
32877;DHT22;19226;51.600;8.034;2023-08-06T17:27:35;17.00;99.90